Time;durP1;ratioP1;P1;durP2;ratioP2;P2;SDS_P1;SDS_P2;PMS_P1;PMS_P2;Temp;Humidity;BMP_temperature;BMP_pressure;BME280_temperature;BME280_humidity;BME280_pressure;Samples;Min_cycle;Max_cycle;Signal;HPM_P1;HPM_P2
2020/12/09 00:01:42;;;;;;;95.78;43.65;;;;;;;4.87;73.83;95055.66;5093304;28;20191;-68
2020/12/09 00:04:09;;;;;;;97.47;43.13;;;;;;;4.71;73.67;95038.06;5092483;28;20213;-68
2020/12/09 00:06:37;;;;;;;98.85;43.20;;;;;;;4.83;73.75;95058.91;5092658;28;20657;-72
2020/12/09 00:09:11;;;;;;;92.90;43.10;;;;;;;4.83;73.77;95038.94;5092105;28;20632;-72
2020/12/09 00:11:40;;;;;;;101.25;45.83;;;;;;;4.90;73.87;95054.44;5092172;28;20251;-72
2020/12/09 00:14:09;;;;;;;93.22;45.22;;;;;;;5.02;73.49;95058.69;5091964;28;20665;-72
2020/12/09 00:16:36;;;;;;;97.88;43.90;;;;;;;5.01;74.14;95054.53;5091931;28;20211;-71
2020/12/09 00:19:04;;;;;;;89.25;44.00;;;;;;;5.11;73.13;95047.00;5091816;28;20221;-69
2020/12/09 00:21:34;;;;;;;107.00;48.22;;;;;;;4.81;73.80;95050.53;5092006;28;20213;-72
2020/12/09 00:24:01;;;;;;;94.43;46.60;;;;;;;4.85;74.08;95044.69;5091285;28;20191;-70
2020/12/09 00:26:28;;;;;;;93.72;45.95;;;;;;;5.04;73.75;95046.28;5091037;28;20245;-70
2020/12/09 00:28:56;;;;;;;93.18;43.92;;;;;;;5.12;73.27;95048.59;5091255;28;20206;-69
2020/12/09 00:31:25;;;;;;;89.25;43.75;;;;;;;4.97;73.19;95032.59;5091634;28;20201;-68
2020/12/09 00:33:52;;;;;;;96.03;45.33;;;;;;;5.21;73.16;95045.69;5091001;28;20333;-72
2020/12/09 00:36:21;;;;;;;89.95;44.17;;;;;;;5.23;72.80;95033.28;5091174;28;20176;-72
2020/12/09 00:38:49;;;;;;;88.35;44.33;;;;;;;5.20;73.05;95028.53;5091189;28;20194;-72
2020/12/09 00:41:20;;;;;;;89.78;43.17;;;;;;;5.26;72.93;95040.63;5091322;28;20199;-71
2020/12/09 00:43:47;;;;;;;85.78;41.55;;;;;;;5.27;73.39;95034.44;5091101;28;20676;-72
2020/12/09 00:46:18;;;;;;;86.72;43.90;;;;;;;5.35;72.58;95044.50;5091435;28;20199;-74
2020/12/09 00:48:48;;;;;;;89.80;44.25;;;;;;;5.31;72.92;95035.59;5089685;28;20268;-72
2020/12/09 00:51:18;;;;;;;86.88;42.58;;;;;;;5.38;72.67;95033.69;5091280;28;20288;-69
2020/12/09 00:53:45;;;;;;;87.57;45.10;;;;;;;5.36;72.87;95033.13;5089585;28;20260;-73
2020/12/09 00:56:13;;;;;;;86.78;44.53;;;;;;;5.44;72.46;95030.22;5092764;28;20233;-70
2020/12/09 00:58:40;;;;;;;88.22;45.40;;;;;;;5.48;72.37;95033.94;5094468;28;20195;-67
2020/12/09 01:01:09;;;;;;;90.15;44.40;;;;;;;5.56;72.15;95034.44;5089672;28;20203;-73
2020/12/09 01:03:36;;;;;;;91.32;45.33;;;;;;;5.51;72.10;95029.09;5089494;28;20207;-69
2020/12/09 01:06:04;;;;;;;92.38;46.25;;;;;;;5.46;72.53;95022.97;5091198;28;20261;-74
2020/12/09 01:08:31;;;;;;;93.63;46.75;;;;;;;5.44;72.23;95012.03;5090270;28;20214;-73
2020/12/09 01:10:58;;;;;;;100.20;46.72;;;;;;;5.38;72.15;95020.69;5090564;28;20249;-74
2020/12/09 01:13:24;;;;;;;102.07;47.97;;;;;;;5.35;72.36;95015.94;5090446;28;20278;-71
2020/12/09 01:15:51;;;;;;;94.65;46.63;;;;;;;5.40;71.93;95023.88;5090826;28;20215;-72
2020/12/09 01:18:17;;;;;;;94.75;44.85;;;;;;;5.25;72.47;95026.06;5090286;28;20199;-70
2020/12/09 01:20:44;;;;;;;86.07;42.72;;;;;;;5.35;72.15;95010.72;5090777;28;20195;-69
2020/12/09 01:23:10;;;;;;;81.60;42.35;;;;;;;5.36;72.26;95004.53;5090784;28;20207;-76
2020/12/09 01:25:37;;;;;;;89.40;43.97;;;;;;;5.33;72.27;95003.16;5090201;28;20226;-75
2020/12/09 01:28:04;;;;;;;98.75;48.67;;;;;;;5.18;72.46;95006.16;5090537;28;20199;-73
2020/12/09 01:30:31;;;;;;;96.57;47.42;;;;;;;5.33;72.33;94997.19;5090025;28;20238;-69
2020/12/09 01:32:59;;;;;;;91.70;46.03;;;;;;;5.33;71.94;94995.38;5090594;28;20223;-69
2020/12/09 01:35:26;;;;;;;84.70;43.45;;;;;;;5.15;72.59;95001.41;5090276;28;20223;-73
2020/12/09 01:37:53;;;;;;;84.65;41.75;;;;;;;5.17;72.73;95011.56;5089604;28;20279;-68
2020/12/09 01:40:21;;;;;;;77.18;40.45;;;;;;;5.27;72.40;94987.69;5090066;28;20188;-69
2020/12/09 01:42:50;;;;;;;80.93;40.83;;;;;;;5.30;72.53;94987.22;5089057;28;20207;-72
2020/12/09 01:45:18;;;;;;;80.80;39.33;;;;;;;5.40;72.49;94987.50;5090016;28;21064;-75
2020/12/09 01:47:45;;;;;;;74.90;39.38;;;;;;;5.38;72.45;94979.13;5090174;28;20179;-72
2020/12/09 01:50:14;;;;;;;80.38;39.45;;;;;;;5.44;71.90;94978.25;5090111;28;20187;-71
2020/12/09 01:52:41;;;;;;;73.40;40.03;;;;;;;5.37;72.01;94972.34;5090240;28;20179;-72
2020/12/09 01:55:08;;;;;;;89.90;43.08;;;;;;;5.35;72.32;94989.94;5089928;28;20218;-73
2020/12/09 01:57:37;;;;;;;84.38;44.22;;;;;;;5.53;72.22;94997.72;5089794;28;20203;-73
2020/12/09 02:00:05;;;;;;;88.68;44.17;;;;;;;5.33;72.61;94981.59;5089758;28;20191;-76
2020/12/09 02:02:39;;;;;;;95.53;45.30;;;;;;;5.50;72.29;94982.53;5088451;28;20202;-74
2020/12/09 02:05:07;;;;;;;90.30;44.70;;;;;;;5.64;72.15;94983.97;5089941;28;20195;-75
2020/12/09 02:07:33;;;;;;;94.93;47.10;;;;;;;5.57;72.12;94967.66;5089911;28;20198;-70
2020/12/09 02:10:03;;;;;;;82.80;41.60;;;;;;;5.66;72.18;94967.13;5089484;28;20187;-72
2020/12/09 02:12:32;;;;;;;84.75;43.30;;;;;;;5.64;72.48;94957.97;5089821;28;20188;-72
2020/12/09 02:15:00;;;;;;;86.55;43.78;;;;;;;5.73;72.21;94967.81;5089490;28;20242;-73
2020/12/09 02:17:26;;;;;;;90.43;42.47;;;;;;;5.86;72.44;94974.63;5089753;28;20184;-73
2020/12/09 02:19:53;;;;;;;93.38;43.47;;;;;;;5.77;72.66;94952.53;5089385;28;20238;-73
2020/12/09 02:22:19;;;;;;;72.40;35.78;;;;;;;5.82;73.13;94966.47;5089960;28;20263;-75
2020/12/09 02:24:46;;;;;;;68.82;35.90;;;;;;;5.89;72.99;94966.41;5089313;28;20219;-68
2020/12/09 02:27:13;;;;;;;67.15;34.65;;;;;;;5.96;73.42;94969.69;5089694;28;20219;-71
2020/12/09 02:29:40;;;;;;;70.45;35.35;;;;;;;5.98;73.24;94959.84;5093422;28;20218;-69
2020/12/09 02:32:06;;;;;;;68.75;33.25;;;;;;;6.03;73.16;94975.56;5089652;28;20250;-71
2020/12/09 02:34:33;;;;;;;70.18;34.40;;;;;;;6.02;73.56;94976.59;5088884;28;20227;-71
2020/12/09 02:37:00;;;;;;;58.22;31.63;;;;;;;6.16;73.54;94977.97;5089388;28;20201;-70
2020/12/09 02:39:37;;;;;;;43.17;24.60;;;;;;;6.20;73.29;94979.09;5089315;28;20191;-70
2020/12/09 02:42:05;;;;;;;41.03;24.13;;;;;;;6.25;73.51;94976.59;5089504;28;20256;-69
2020/12/09 02:44:31;;;;;;;42.40;26.10;;;;;;;6.21;73.64;94965.06;5089548;28;20198;-71
2020/12/09 02:46:58;;;;;;;43.10;25.23;;;;;;;6.18;73.85;94981.13;5089472;28;20225;-73
2020/12/09 02:49:25;;;;;;;51.35;27.80;;;;;;;6.26;73.26;94972.97;5090650;28;20204;-69
2020/12/09 02:51:52;;;;;;;48.33;26.95;;;;;;;6.29;73.84;94976.94;5093495;28;20192;-71
2020/12/09 02:54:21;;;;;;;51.20;26.88;;;;;;;6.36;73.42;94970.59;5093228;28;20567;-69
2020/12/09 02:56:48;;;;;;;45.70;24.58;;;;;;;6.35;73.29;94976.81;5091784;28;20213;-73
2020/12/09 02:59:15;;;;;;;44.22;24.85;;;;;;;6.24;73.38;94959.38;5093335;28;20195;-71
2020/12/09 03:01:41;;;;;;;46.47;24.98;;;;;;;6.31;73.72;94970.50;5094022;28;20190;-72
2020/12/09 03:04:07;;;;;;;46.95;24.27;;;;;;;6.30;73.09;94987.13;5092967;28;20559;-71
2020/12/09 03:06:34;;;;;;;51.08;25.75;;;;;;;6.37;72.78;94979.22;5093570;28;20677;-70
2020/12/09 03:09:01;;;;;;;52.45;25.65;;;;;;;6.30;72.91;94974.09;5093203;28;20644;-73
2020/12/09 03:11:29;;;;;;;52.08;26.42;;;;;;;6.41;73.13;94996.72;5093376;28;20256;-68
2020/12/09 03:13:56;;;;;;;61.22;27.30;;;;;;;6.52;72.73;94997.75;5092941;28;20194;-70
2020/12/09 03:16:22;;;;;;;60.47;27.92;;;;;;;6.44;72.40;94996.28;5093078;28;20260;-68
2020/12/09 03:18:48;;;;;;;59.55;27.63;;;;;;;6.33;72.67;94989.28;5092681;28;20199;-73
2020/12/09 03:21:15;;;;;;;60.15;28.38;;;;;;;6.35;72.81;94991.66;5093334;28;20206;-71
2020/12/09 03:23:41;;;;;;;60.03;27.42;;;;;;;6.49;72.14;94978.19;5092656;28;20249;-68
2020/12/09 03:26:08;;;;;;;66.40;28.98;;;;;;;6.58;72.34;94992.44;5093367;28;20202;-72
2020/12/09 03:28:35;;;;;;;56.05;28.15;;;;;;;6.43;72.63;94984.28;5093293;28;20274;-71
2020/12/09 03:31:04;;;;;;;70.22;31.02;;;;;;;6.47;72.23;94985.44;5093040;28;20290;-66
2020/12/09 03:33:30;;;;;;;63.30;31.48;;;;;;;6.49;72.62;94988.59;5092382;28;20238;-72
2020/12/09 03:35:57;;;;;;;59.28;29.33;;;;;;;6.54;72.47;94996.50;5092768;28;20649;-70
2020/12/09 03:38:24;;;;;;;63.13;32.50;;;;;;;6.59;72.22;94988.78;5092637;28;20574;-74
2020/12/09 03:40:51;;;;;;;76.15;37.00;;;;;;;6.51;72.15;94978.75;5093152;28;20190;-71
2020/12/09 03:43:18;;;;;;;70.97;36.00;;;;;;;6.36;72.45;94973.22;5092340;28;20253;-75
2020/12/09 03:45:44;;;;;;;63.80;31.42;;;;;;;6.52;72.44;94977.72;5093036;28;20199;-72
2020/12/09 03:48:10;;;;;;;57.40;31.15;;;;;;;6.60;72.13;94984.38;5092501;28;20180;-70
2020/12/09 03:50:37;;;;;;;57.03;28.77;;;;;;;6.50;72.13;94971.16;5092169;28;20183;-71
2020/12/09 03:53:04;;;;;;;59.35;29.67;;;;;;;6.45;72.21;94974.44;5092315;28;20310;-68
2020/12/09 03:55:30;;;;;;;65.97;30.70;;;;;;;6.41;72.42;94969.91;5091866;28;20214;-71
2020/12/09 03:58:00;;;;;;;60.65;29.65;;;;;;;6.43;72.40;94960.06;5092492;28;20195;-72
2020/12/09 04:00:28;;;;;;;67.32;30.77;;;;;;;6.40;73.04;94961.34;5094219;28;20203;-69
2020/12/09 04:02:55;;;;;;;73.75;34.45;;;;;;;6.55;72.82;94966.84;5100322;28;20222;-75
2020/12/09 04:05:21;;;;;;;84.85;37.63;;;;;;;6.36;72.80;94962.78;5091850;28;20210;-72
2020/12/09 04:07:48;;;;;;;89.25;38.17;;;;;;;6.48;72.52;94970.59;5092185;28;20211;-73
2020/12/09 04:10:15;;;;;;;81.38;34.20;;;;;;;6.49;72.54;94972.97;5091987;28;20212;-72
2020/12/09 04:12:41;;;;;;;74.60;31.27;;;;;;;6.46;73.05;94970.81;5092109;28;20191;-71
2020/12/09 04:15:07;;;;;;;56.83;26.77;;;;;;;6.52;72.91;94971.72;5091359;28;20297;-73
2020/12/09 04:17:34;;;;;;;49.80;23.08;;;;;;;6.60;72.60;94972.19;5091632;28;20232;-73
2020/12/09 04:20:00;;;;;;;55.78;25.67;;;;;;;6.41;72.72;94975.13;5091393;28;20294;-73
2020/12/09 04:22:26;;;;;;;56.65;24.20;;;;;;;6.60;72.81;94969.56;5091815;28;20199;-69
2020/12/09 04:24:53;;;;;;;53.90;22.65;;;;;;;6.56;72.65;94984.06;5091391;28;20203;-72
2020/12/09 04:27:20;;;;;;;36.55;19.17;;;;;;;6.58;72.44;94971.59;5091921;28;20199;-70
2020/12/09 04:29:47;;;;;;;26.85;15.77;;;;;;;6.49;71.82;94967.78;5091960;28;20222;-71
2020/12/09 04:32:14;;;;;;;28.58;15.90;;;;;;;6.45;72.55;94965.84;5091689;28;20732;-69
2020/12/09 04:34:40;;;;;;;29.35;16.33;;;;;;;6.53;72.44;94968.09;5090986;28;20660;-69
2020/12/09 04:37:08;;;;;;;37.90;18.45;;;;;;;6.45;72.29;94940.59;5091777;28;20205;-72
2020/12/09 04:39:35;;;;;;;44.25;22.45;;;;;;;6.31;73.08;94949.69;5091440;28;20225;-69
2020/12/09 04:42:03;;;;;;;49.83;22.55;;;;;;;6.33;73.54;94932.03;5091929;28;20198;-70
2020/12/09 04:44:31;;;;;;;36.95;19.50;;;;;;;6.43;73.07;94934.84;5091366;28;20227;-72
2020/12/09 04:47:04;;;;;;;25.45;15.15;;;;;;;6.38;72.77;94944.34;5091495;28;20198;-74
2020/12/09 04:49:44;;;;;;;22.90;13.10;;;;;;;6.31;73.20;94936.66;5091499;28;20203;-70
2020/12/09 04:52:25;;;;;;;20.45;12.73;;;;;;;6.32;73.14;94943.44;5091499;28;20713;-73
2020/12/09 04:55:03;;;;;;;19.23;12.40;;;;;;;6.30;72.83;94947.28;5091369;28;20284;-70
2020/12/09 04:57:43;;;;;;;19.02;11.82;;;;;;;6.25;73.27;94942.78;5091914;28;20289;-75
2020/12/09 05:00:13;;;;;;;18.50;11.75;;;;;;;6.27;73.49;94940.75;5090942;28;20195;-74
2020/12/09 05:02:48;;;;;;;18.08;11.65;;;;;;;6.29;73.07;94924.91;5091279;28;20260;-73
2020/12/09 05:05:17;;;;;;;18.02;11.48;;;;;;;6.22;73.33;94925.03;5090807;28;20252;-71
2020/12/09 05:07:50;;;;;;;18.17;11.23;;;;;;;6.30;73.20;94932.47;5091617;28;20224;-72
2020/12/09 05:10:21;;;;;;;17.88;11.73;;;;;;;6.47;72.69;94948.19;5090793;28;20199;-71
2020/12/09 05:12:50;;;;;;;18.02;11.13;;;;;;;6.38;73.13;94939.16;5067740;28;20773;-69
2020/12/09 05:15:20;;;;;;;17.52;11.63;;;;;;;6.31;72.90;94936.66;5070184;28;20227;-68
2020/12/09 05:17:53;;;;;;;17.27;11.40;;;;;;;6.32;72.80;94943.44;5070249;28;20199;-68
2020/12/09 05:20:34;;;;;;;19.27;11.77;;;;;;;6.28;73.27;94944.91;5069689;28;21011;-73
2020/12/09 05:23:02;;;;;;;17.95;11.15;;;;;;;6.35;73.17;94947.41;5070278;28;20275;-71
2020/12/09 05:25:30;;;;;;;18.75;11.82;;;;;;;6.36;73.20;94926.38;5069569;28;20299;-70
2020/12/09 05:27:57;;;;;;;16.38;10.38;;;;;;;6.38;73.11;94919.13;5068437;28;20595;-69
2020/12/09 05:30:47;;;;;;;16.48;10.48;;;;;;;6.37;73.09;94906.34;5070099;28;20690;-69
2020/12/09 05:33:30;;;;;;;18.92;10.90;;;;;;;6.28;72.58;94926.69;5073411;28;20228;-69
2020/12/09 05:36:02;;;;;;;17.92;11.20;;;;;;;6.37;72.61;94927.94;5070417;28;20235;-66
2020/12/09 05:38:29;;;;;;;16.02;10.93;;;;;;;6.46;72.77;94926.56;5069203;28;20688;-69
2020/12/09 05:40:57;;;;;;;19.38;12.30;;;;;;;6.29;72.68;94907.47;5069533;28;20330;-70
2020/12/09 05:43:24;;;;;;;17.90;11.38;;;;;;;6.12;73.46;94923.00;5069308;28;20714;-71
2020/12/09 05:45:51;;;;;;;21.20;12.98;;;;;;;6.04;73.53;94912.13;5069903;28;20587;-72
2020/12/09 05:48:25;;;;;;;19.90;12.48;;;;;;;6.14;73.78;94918.34;5072147;28;20196;-69
2020/12/09 05:50:56;;;;;;;20.30;12.68;;;;;;;6.27;73.69;94929.53;5078044;28;20267;-69
2020/12/09 05:53:32;;;;;;;19.75;12.73;;;;;;;6.21;73.29;94931.22;5078153;28;20253;-68
2020/12/09 05:56:15;;;;;;;19.10;12.50;;;;;;;6.34;72.91;94938.00;5077204;28;20291;-68
2020/12/09 05:58:44;;;;;;;19.70;12.40;;;;;;;6.32;73.08;94946.06;5072800;28;20695;-75
2020/12/09 06:01:21;;;;;;;19.33;12.50;;;;;;;6.25;72.84;94942.78;5069753;28;20223;-68
2020/12/09 06:03:53;;;;;;;20.67;13.20;;;;;;;6.35;73.12;94950.78;5069612;28;20279;-73
2020/12/09 06:06:27;;;;;;;20.77;13.05;;;;;;;6.33;72.55;94936.44;5070112;28;20715;-73
2020/12/09 06:08:55;;;;;;;25.30;14.40;;;;;;;6.27;72.81;94955.56;5069408;28;20553;-69
2020/12/09 06:11:27;;;;;;;25.08;15.30;;;;;;;6.38;72.81;94949.56;5069873;28;20214;-73
2020/12/09 06:13:55;;;;;;;23.45;14.30;;;;;;;6.57;72.22;94941.38;5068668;28;20294;-73
2020/12/09 06:16:23;;;;;;;24.60;13.80;;;;;;;6.49;72.09;94952.16;5070299;28;20227;-71
2020/12/09 06:18:53;;;;;;;24.85;12.80;;;;;;;6.37;72.76;94948.75;5070011;28;20203;-69
2020/12/09 06:21:21;;;;;;;21.25;13.45;;;;;;;6.37;72.45;94948.75;5069739;28;20231;-68
2020/12/09 06:23:48;;;;;;;19.75;12.80;;;;;;;6.35;72.52;94950.78;5069183;28;20192;-71
2020/12/09 06:26:15;;;;;;;18.88;11.75;;;;;;;6.16;73.32;94936.34;5069705;28;20184;-73
2020/12/09 06:28:47;;;;;;;20.63;12.07;;;;;;;6.36;72.83;94949.78;5069405;28;20271;-74
2020/12/09 06:31:19;;;;;;;16.90;11.10;;;;;;;5.99;73.20;94935.41;5069385;28;20191;-72
2020/12/09 06:33:51;;;;;;;17.20;10.65;;;;;;;6.19;72.88;94946.28;5068158;28;20700;-73
2020/12/09 06:36:29;;;;;;;17.40;10.45;;;;;;;6.28;72.54;94955.31;5069137;28;20323;-68
2020/12/09 06:39:08;;;;;;;17.73;10.60;;;;;;;6.37;72.49;94959.16;5069844;28;20199;-72
2020/12/09 06:41:40;;;;;;;19.50;11.90;;;;;;;6.38;72.42;94955.56;5069720;28;20207;-70
2020/12/09 06:44:09;;;;;;;21.10;12.60;;;;;;;6.30;72.09;94955.09;5069155;28;20208;-71
2020/12/09 06:46:44;;;;;;;18.33;11.57;;;;;;;6.43;72.29;94953.06;5069118;28;20210;-68
2020/12/09 06:49:31;;;;;;;17.52;10.80;;;;;;;6.43;72.02;94947.84;5069188;28;20251;-69
2020/12/09 06:52:10;;;;;;;22.13;11.57;;;;;;;6.37;72.39;94947.97;5069645;28;20191;-72
2020/12/09 06:54:42;;;;;;;20.85;11.93;;;;;;;6.39;72.07;94953.72;5068982;28;20204;-73
2020/12/09 06:57:23;;;;;;;21.40;11.88;;;;;;;6.38;72.26;94960.75;5069674;28;20654;-69
2020/12/09 07:00:11;;;;;;;21.20;11.88;;;;;;;6.23;73.67;94954.41;5069022;28;20192;-67
2020/12/09 07:02:42;;;;;;;20.85;12.20;;;;;;;6.35;73.33;94957.81;5069155;28;20665;-73
2020/12/09 07:05:13;;;;;;;19.98;12.23;;;;;;;6.50;73.76;94953.72;5072183;28;20214;-71
2020/12/09 07:07:48;;;;;;;18.92;12.05;;;;;;;6.35;73.41;94937.78;5069252;28;20204;-69
2020/12/09 07:10:17;;;;;;;21.27;11.80;;;;;;;6.80;75.49;94949.16;5068786;28;20191;-66
2020/12/09 07:12:45;;;;;;;15.10;9.90;;;;;;;6.96;73.68;94937.22;5068864;28;20196;-67
2020/12/09 07:15:11;;;;;;;16.27;9.68;;;;;;;7.13;72.03;94944.03;5068254;28;20310;-67
2020/12/09 07:17:38;;;;;;;13.73;8.60;;;;;;;7.17;71.70;94945.16;5068923;28;20188;-66
2020/12/09 07:20:05;;;;;;;13.85;8.93;;;;;;;7.12;71.19;94926.84;5067284;28;20222;-74
2020/12/09 07:22:32;;;;;;;15.43;9.85;;;;;;;7.26;70.94;94937.78;5069434;28;20204;-71
2020/12/09 07:24:58;;;;;;;14.10;9.52;;;;;;;7.14;70.05;94937.81;5068694;28;20200;-70
2020/12/09 07:27:26;;;;;;;15.52;10.00;;;;;;;6.98;70.12;94943.78;5068959;28;20188;-71
2020/12/09 07:29:57;;;;;;;16.02;10.48;;;;;;;7.09;70.54;94937.75;5068840;28;20192;-74
2020/12/09 07:32:24;;;;;;;14.65;10.43;;;;;;;6.94;69.97;94934.84;5068692;28;20235;-73
2020/12/09 07:34:59;;;;;;;14.38;9.75;;;;;;;6.95;70.64;94931.19;5073677;28;20211;-72
2020/12/09 07:37:29;;;;;;;14.10;9.15;;;;;;;6.92;70.44;94930.88;5089191;28;20205;-70
2020/12/09 07:39:59;;;;;;;13.85;9.13;;;;;;;6.73;71.55;94934.69;5090901;28;20195;-74
2020/12/09 07:42:25;;;;;;;90.35;61.47;;;;;;;6.69;71.00;94926.53;5092187;28;20563;-71
2020/12/09 07:44:53;;;;;;;18.13;12.07;;;;;;;6.77;71.38;94943.63;5090030;28;20231;-72
2020/12/09 07:47:26;;;;;;;14.18;9.88;;;;;;;6.78;70.61;94946.00;5092112;28;20639;-76
2020/12/09 07:50:03;;;;;;;15.25;10.23;;;;;;;6.85;71.19;94933.63;5092320;28;20654;-72
2020/12/09 07:52:32;;;;;;;14.52;8.85;;;;;;;6.82;71.40;94931.50;5095461;28;20259;-72
2020/12/09 07:55:01;;;;;;;15.18;9.55;;;;;;;6.67;71.40;94949.41;5095591;28;20222;-68
2020/12/09 07:57:36;;;;;;;15.15;9.80;;;;;;;6.77;70.87;94943.63;5093494;28;20203;-72
2020/12/09 08:00:11;;;;;;;16.30;10.38;;;;;;;6.79;71.13;94952.75;5091667;28;20205;-74
2020/12/09 08:02:42;;;;;;;14.77;9.77;;;;;;;6.87;70.83;94949.81;5092134;28;20741;-70
2020/12/09 08:05:20;;;;;;;61.47;41.88;;;;;;;7.00;71.52;94954.75;5091588;28;20270;-71
2020/12/09 08:07:58;;;;;;;232.52;187.57;;;;;;;7.22;70.79;94962.72;5091763;28;20222;-69
2020/12/09 08:10:26;;;;;;;18.85;12.32;;;;;;;7.29;70.15;94952.94;5090813;28;20179;-69
2020/12/09 08:13:02;;;;;;;17.67;11.15;;;;;;;7.22;69.80;94956.72;5091982;28;20580;-74
2020/12/09 08:15:28;;;;;;;17.15;11.80;;;;;;;7.07;70.33;94950.19;5091195;28;20253;-71
2020/12/09 08:17:56;;;;;;;20.38;11.57;;;;;;;7.17;69.91;94958.19;5091860;28;20191;-71
2020/12/09 08:20:22;;;;;;;18.30;12.13;;;;;;;7.06;70.75;94953.81;5093440;28;20195;-72
2020/12/09 08:23:02;;;;;;;18.95;12.07;;;;;;;7.18;70.59;94946.78;5091442;28;20203;-69
2020/12/09 08:25:31;;;;;;;19.52;12.38;;;;;;;7.11;70.36;94951.31;5086071;28;20289;-73
2020/12/09 08:28:05;;;;;;;19.75;12.77;;;;;;;6.93;70.21;94942.88;5091247;28;20191;-70
2020/12/09 08:30:34;;;;;;;16.30;10.18;;;;;;;7.10;70.40;94948.94;5090667;28;20240;-72
2020/12/09 08:33:14;;;;;;;14.10;9.32;;;;;;;7.05;69.68;94960.06;5091006;28;20607;-72
2020/12/09 08:35:48;;;;;;;14.45;9.35;;;;;;;6.59;71.38;94978.38;5090850;28;20219;-73
2020/12/09 08:38:38;;;;;;;15.93;10.32;;;;;;;6.89;71.45;94968.59;5091986;28;20190;-70
2020/12/09 08:41:25;;;;;;;17.52;10.38;;;;;;;6.92;72.48;94957.72;5089276;28;20210;-71
2020/12/09 08:43:55;;;;;;;16.30;10.55;;;;;;;7.07;71.84;94950.19;5090488;28;20182;-68
2020/12/09 08:46:24;;;;;;;15.63;10.77;;;;;;;7.01;71.89;94943.31;5091060;28;20195;-69
2020/12/09 08:48:52;;;;;;;17.85;11.25;;;;;;;7.20;70.75;94951.75;5090272;28;20572;-68
2020/12/09 08:51:23;;;;;;;21.00;13.82;;;;;;;7.24;70.71;94952.88;5090397;28;20199;-70
2020/12/09 08:53:51;;;;;;;45.35;26.00;;;;;;;7.32;70.79;94946.50;5089778;28;20262;-68
2020/12/09 08:56:24;;;;;;;20.92;14.10;;;;;;;7.26;70.77;94957.84;5090269;28;20207;-69
2020/12/09 08:58:51;;;;;;;15.93;10.30;;;;;;;7.22;70.21;94958.28;5090111;28;20191;-67
2020/12/09 09:01:17;;;;;;;14.68;8.93;;;;;;;7.14;70.09;94950.84;5089894;28;20199;-70
2020/12/09 09:03:45;;;;;;;12.98;9.20;;;;;;;7.18;70.59;94938.94;5090371;28;20278;-66
2020/12/09 09:06:12;;;;;;;16.10;10.23;;;;;;;7.32;70.19;94943.88;5090196;28;20738;-70
2020/12/09 09:08:38;;;;;;;13.95;9.48;;;;;;;7.43;69.47;94943.81;5089692;28;20191;-69
2020/12/09 09:11:05;;;;;;;16.73;10.63;;;;;;;7.42;69.46;94937.03;5090404;28;20215;-67
2020/12/09 09:13:31;;;;;;;14.30;9.52;;;;;;;7.28;70.25;94925.28;5090164;28;20889;-69
2020/12/09 09:16:05;;;;;;;13.75;9.48;;;;;;;7.44;69.46;94921.16;5090572;28;20227;-66
2020/12/09 09:18:31;;;;;;;16.10;10.35;;;;;;;7.39;69.54;94923.69;5089773;28;20199;-67
2020/12/09 09:20:58;;;;;;;16.20;10.95;;;;;;;7.32;69.86;94915.97;5090221;28;20194;-67
2020/12/09 09:23:25;;;;;;;16.00;10.30;;;;;;;7.50;69.16;94915.78;5089330;28;20203;-69
2020/12/09 09:26:08;;;;;;;15.10;9.65;;;;;;;7.29;69.50;94918.28;5090184;28;20210;-67
2020/12/09 09:28:35;;;;;;;13.93;9.43;;;;;;;7.22;70.31;94920.22;5089243;28;20259;-68
2020/12/09 09:31:01;;;;;;;17.50;10.45;;;;;;;7.37;70.29;94923.13;5089915;28;20187;-69
2020/12/09 09:33:28;;;;;;;17.02;10.65;;;;;;;7.43;70.85;94917.75;5089302;28;20242;-66
2020/12/09 09:35:55;;;;;;;17.00;10.35;;;;;;;7.13;69.27;94880.75;5089436;28;20231;-66
2020/12/09 09:38:21;;;;;;;19.70;12.55;;;;;;;7.41;69.33;94903.38;5088233;28;20190;-67
2020/12/09 09:40:48;;;;;;;19.38;11.90;;;;;;;7.40;69.29;94896.56;5089958;28;20205;-71
2020/12/09 09:43:14;;;;;;;16.42;10.77;;;;;;;7.45;69.16;94901.84;5090033;28;20191;-70
2020/12/09 09:45:40;;;;;;;21.65;11.48;;;;;;;7.50;69.62;94891.53;5089806;28;20195;-69
2020/12/09 09:48:07;;;;;;;15.20;9.20;;;;;;;7.38;69.44;94882.97;5089749;28;20186;-72
2020/12/09 09:50:33;;;;;;;17.33;10.32;;;;;;;7.32;69.36;94883.94;5089656;28;20191;-65
2020/12/09 09:52:59;;;;;;;14.73;9.18;;;;;;;7.28;68.53;94872.41;5088903;28;20197;-70
2020/12/09 09:55:26;;;;;;;15.70;10.45;;;;;;;7.34;69.55;94889.69;5089749;28;20265;-66
2020/12/09 09:57:52;;;;;;;30.08;20.02;;;;;;;7.59;69.50;94882.31;5089325;28;20297;-67
2020/12/09 10:00:19;;;;;;;68.93;32.72;;;;;;;7.46;68.97;94880.00;5088049;28;20215;-69
2020/12/09 10:02:46;;;;;;;17.05;10.73;;;;;;;7.62;69.09;94874.00;5089717;28;20281;-69
2020/12/09 10:05:12;;;;;;;20.23;10.68;;;;;;;7.53;68.74;94867.59;5088941;28;20252;-70
2020/12/09 10:07:39;;;;;;;14.73;9.68;;;;;;;7.51;68.27;94864.44;5088447;28;20625;-70
2020/12/09 10:10:09;;;;;;;17.50;9.73;;;;;;;7.33;69.11;94862.84;5088814;28;20203;-71
2020/12/09 10:12:35;;;;;;;14.13;8.95;;;;;;;7.38;69.16;94855.09;5088937;28;20310;-71
2020/12/09 10:15:02;;;;;;;15.02;9.32;;;;;;;7.43;68.66;94830.91;5089527;28;20230;-65
2020/12/09 10:17:29;;;;;;;10.60;7.22;;;;;;;7.65;68.45;94850.03;5090230;28;20195;-71
2020/12/09 10:19:57;;;;;;;11.77;7.70;;;;;;;7.67;67.95;94850.59;5089241;28;20195;-69
2020/12/09 10:22:26;;;;;;;11.10;7.65;;;;;;;7.52;68.18;94851.16;5088675;28;20282;-72
2020/12/09 10:24:53;;;;;;;12.63;8.20;;;;;;;7.36;69.00;94838.91;5088408;28;20199;-72
2020/12/09 10:27:21;;;;;;;13.13;9.07;;;;;;;7.68;72.30;94826.88;5088430;28;20206;-67
2020/12/09 10:29:48;;;;;;;11.43;7.82;;;;;;;7.88;69.26;94800.31;5088649;28;20205;-72
2020/12/09 10:32:15;;;;;;;15.10;8.50;;;;;;;7.75;68.32;94819.72;5084578;28;20210;-72
2020/12/09 10:34:41;;;;;;;11.38;7.82;;;;;;;7.71;67.59;94821.22;5085570;28;20263;-69
2020/12/09 10:37:09;;;;;;;11.38;7.65;;;;;;;7.74;67.33;94809.50;5085900;28;20190;-70
2020/12/09 10:39:36;;;;;;;12.70;8.25;;;;;;;7.75;67.39;94809.28;5085746;28;20828;-69
2020/12/09 10:42:02;;;;;;;12.25;7.88;;;;;;;7.54;67.54;94814.41;5086486;28;20209;-70
2020/12/09 10:44:29;;;;;;;9.30;6.55;;;;;;;7.48;67.33;94799.75;5086745;28;20289;-69
2020/12/09 10:46:56;;;;;;;10.30;7.32;;;;;;;7.44;66.95;94803.84;5089181;28;20247;-70
2020/12/09 10:49:22;;;;;;;13.80;8.23;;;;;;;7.53;67.85;94807.63;5088690;28;20192;-74
2020/12/09 10:51:51;;;;;;;11.15;7.55;;;;;;;7.45;67.32;94795.78;5088791;28;20199;-71
2020/12/09 10:54:18;;;;;;;14.48;9.30;;;;;;;7.65;67.75;94806.50;5089152;28;20210;-71
2020/12/09 10:56:45;;;;;;;13.60;9.52;;;;;;;7.79;67.33;94799.16;5089218;28;20242;-77
2020/12/09 10:59:16;;;;;;;12.07;8.75;;;;;;;7.83;67.06;94808.03;5087597;28;20209;-72
2020/12/09 11:01:44;;;;;;;13.57;8.50;;;;;;;7.88;67.51;94805.53;5087817;28;20199;-69
2020/12/09 11:04:11;;;;;;;11.07;7.30;;;;;;;7.85;67.28;94795.56;5089068;28;20626;-70
2020/12/09 11:06:38;;;;;;;10.68;7.80;;;;;;;7.76;68.05;94782.16;5088897;28;20198;-73
2020/12/09 11:09:07;;;;;;;12.60;7.57;;;;;;;7.74;68.17;94791.22;5088507;28;20198;-76
2020/12/09 11:11:35;;;;;;;9.70;7.30;;;;;;;7.86;67.90;94778.91;5092603;28;20195;-69
2020/12/09 11:14:03;;;;;;;11.10;7.35;;;;;;;7.68;67.01;94784.38;5093008;28;20285;-75
2020/12/09 11:16:33;;;;;;;12.15;7.85;;;;;;;7.45;67.38;94789.75;5092670;28;20215;-74
2020/12/09 11:18:59;;;;;;;9.43;6.82;;;;;;;7.45;67.23;94774.13;5091710;28;20636;-72
2020/12/09 11:21:26;;;;;;;10.05;7.20;;;;;;;7.43;67.53;94774.38;5092788;28;20260;-70
2020/12/09 11:23:53;;;;;;;13.90;8.38;;;;;;;7.49;67.60;94768.22;5091980;28;20231;-73
2020/12/09 11:26:23;;;;;;;19.23;9.00;;;;;;;7.60;67.74;94776.97;5092728;28;20199;-75
2020/12/09 11:28:50;;;;;;;14.60;9.80;;;;;;;7.57;67.43;94767.78;5091123;28;20211;-74
2020/12/09 11:31:22;;;;;;;15.90;9.95;;;;;;;7.58;67.60;94779.00;5093157;28;20183;-70
2020/12/09 11:33:49;;;;;;;14.77;9.07;;;;;;;7.89;66.95;94773.19;5086437;28;20523;-69
2020/12/09 11:36:20;;;;;;;16.05;8.95;;;;;;;7.68;66.92;94761.69;5092116;28;20219;-67